Aurora, CO (80015)

6:50 PM MDT on April 30, 2017 (GMT -0600)
Pheasant Run | | Change Station

Elev 5761 ft 39.63 °N, 104.80 °W | Updated 35 seconds ago

Partly Cloudy
Partly Cloudy
56.0 °F
Feels Like 56.0 °F
N
3.0
Wind Variable Wind from East

Today
High -- | Low -- °F
--% Chance of Precip.
Yesterday
High -- | Low -- °F
Precip. -- in
Pressure 29.86 in
Visibility 10.0 miles
Clouds Scattered Clouds 5000 ft
Mostly Cloudy 10000 ft
Mostly Cloudy 22000 ft
Dew Point 24 °F
Humidity 29%
Rainfall 0.68 in
Snow Depth Not available.
6:00 AM 7:52 PM
Waxing Crescent, 27% visible
METAR KAPA 302353Z 28010KT 10SM SCT050 BKN100 BKN220 12/M04 A2986 RMK AO2 SLP110 ACSL DSNT SW-NW T01171039 10117 20039 55004
Pressure 29.86 in
Visibility 10.0 miles
Clouds Scattered Clouds 5000 ft
Mostly Cloudy 10000 ft
Mostly Cloudy 22000 ft
Dew Point 24 °F
Humidity 29%
Rainfall 0.68 in
Snow Depth Not available.
6:00 AM 7:52 PM
Waxing Crescent, 27% visible
METAR KAPA 302353Z 28010KT 10SM SCT050 BKN100 BKN220 12/M04 A2986 RMK AO2 SLP110 ACSL DSNT SW-NW T01171039 10117 20039 55004

Get Severe Weather Alerts

Thanks for signing up!

Be on the lookout for a verification email in your inbox.

You'll start receiving the daily forecast at 8 AM.

×

10-Day Weather Forecast

Almanac

Astronomy

Apr. 30, 2017 Rise Set
Actual Time
Civil Twilight
Nautical Twilight
Astronomical Twilight
Moon
Length of Visible Light
Length of Day
Tomorrow will be .
, % of the Moon is Illuminated

Today's Extremes

State Highs State Lows

Community

WunderPhotos

WunderBlog® & News

Nearby

Air Quality

  Air Quality AQ Index Pollutant
Not available.

Snow Depth

Station Depth Elevation

Earthquake Activity

City Distance Mag. Time & Date
Minimum magnitude displayed is 2.5.

Coastal Water Temperatures

Place Temperature

Stations

Nearby Weather Stations

Station Location Temp. Windchill Dew Point Humidity Wind Precip. Elev Updated Type
                   

Watches & Warnings

There are currently no watches in effect.